MET'MAP v2.0
soon released !

Expected late october,
this new version will be
more efficient, smarter,
and hosted on a brand new
server x3 powerfull...
...and still free !


Not compatible ?
Try the mobile version !

LOG IN : | Subscribe | Disclaimer | Who is Orbifly ? |
ICAO code :
Legend : VFR Marginal VFR IFR Intensive IFR Very Intensive IFR
Visi :
Ceiling :
>= 8 km
>= 3000ft
5 to 8 km
1000 to 3000 ft
1500m to 5 km
500 to 1000 ft
800 to 1500m
200 to 500 ft
< 800m
< 200 ft

METAR - EDFH Frankfurt-Hahn Rhineland-Palatinate - 05 Apr 2020 12:22 UTC
Data Sources :     NOAA   


- Airport Elevation : 1649 ft
- IATA code : HHN
- No reported NOTAMs.


EDFH - Frankfurt-Hahn Rhineland-Palatinate

Latest METAR recorded : 2015/08/11 07:50 EDFH 110750Z 01007KT 340V040 9000 NSC 18/14 Q1019 RMK ATIS W
TAF TAF EDFH
Valid from the 05 at 06:00 until the 06 at 06:00 UTC


050500Z 0506/0606 14005KT CAVOK
BECMG 0506/0509 14010KT
PROB30
TEMPO 0509/0516 15015G25KT

Source NOAA


MET'MAP, your aeronautical weather chart ! - Copyright ORBIFLY December 2007

Programming & Development : Alexandra Zaïnal
Co-Developer : Marc-Olivier Méhu
Technical & hardware support : Manuel Goepfert
Concept & Financing : Baudouin d'Aumeries